Time;durP1;ratioP1;P1;durP2;ratioP2;P2;SDS_P1;SDS_P2;PMS_P1;PMS_P2;Temp;Humidity;BMP_temperature;BMP_pressure;BME280_temperature;BME280_humidity;BME280_pressure;Samples;Min_cycle;Max_cycle;Signal;HPM_P1;HPM_P2
2021/01/02 00:00:59;;;;;;;102.58;45.58;;;;;;;0.62;86.18;100555.81;1652054;85;21135;-76
2021/01/02 00:04:02;;;;;;;112.03;46.00;;;;;;;0.64;86.21;100557.12;1653513;85;21429;-76
2021/01/02 00:06:53;;;;;;;106.70;46.02;;;;;;;0.66;86.18;100561.84;1645932;85;21688;-75
2021/01/02 00:09:23;;;;;;;104.75;45.60;;;;;;;0.66;86.17;100563.97;1655733;85;21561;-75
2021/01/02 00:12:09;;;;;;;112.10;47.13;;;;;;;0.69;86.19;100564.45;1652523;85;21143;-75
2021/01/02 00:14:59;;;;;;;;;;;;;;;0.71;86.20;100564.48;1635752;85;21148;-75
2021/01/02 00:17:33;;;;;;;106.32;42.08;;;;;;;0.72;86.19;100566.20;1653070;85;21246;-75
2021/01/02 00:20:10;;;;;;;100.27;44.27;;;;;;;0.72;86.20;100558.57;1651839;85;21440;-75
2021/01/02 00:22:45;;;;;;;;;;;;;;;0.71;86.20;100565.34;1654527;85;21156;-75
2021/01/02 00:25:16;;;;;;;105.70;43.17;;;;;;;0.75;86.21;100559.91;1651172;86;20509;-75
2021/01/02 00:28:02;;;;;;;108.17;44.15;;;;;;;0.74;86.19;100560.73;1653341;85;21098;-75
2021/01/02 00:30:40;;;;;;;;;;;;;;;0.75;86.18;100570.95;1655213;86;21382;-75
2021/01/02 00:33:19;;;;;;;103.12;44.25;;;;;;;0.76;86.20;100567.59;1652270;85;20255;-75
2021/01/02 00:35:49;;;;;;;116.97;47.10;;;;;;;0.76;86.18;100570.54;1622921;86;21213;-75
2021/01/02 00:38:17;;;;;;;112.08;44.90;;;;;;;0.77;86.19;100571.84;1651908;86;21214;-75
2021/01/02 00:40:43;;;;;;;109.72;46.63;;;;;;;0.79;86.20;100570.61;1649819;85;21205;-75
2021/01/02 00:43:09;;;;;;;104.87;44.53;;;;;;;0.81;86.20;100576.59;1652087;85;21692;-75
2021/01/02 00:45:36;;;;;;;108.10;46.18;;;;;;;0.81;86.18;100574.05;1651883;85;21229;-75
2021/01/02 00:48:04;;;;;;;122.62;48.10;;;;;;;0.82;86.17;100571.95;1631080;86;21199;-76
2021/01/02 00:50:31;;;;;;;117.20;45.92;;;;;;;0.84;86.18;100572.84;1652181;85;21238;-76
2021/01/02 00:53:27;;;;;;;108.67;45.52;;;;;;;0.84;86.17;100573.70;1624993;86;21513;-76
2021/01/02 00:56:17;;;;;;;103.22;44.80;;;;;;;0.85;86.17;100576.70;1600523;86;21735;-76
2021/01/02 00:59:01;;;;;;;103.65;43.92;;;;;;;0.86;86.15;100582.23;1629594;85;21200;-76
2021/01/02 01:01:35;;;;;;;106.45;44.80;;;;;;;0.87;86.16;100589.47;1658450;84;21240;-75
2021/01/02 01:04:34;;;;;;;105.35;44.55;;;;;;;0.86;86.14;100587.74;1659164;85;21219;-75
2021/01/02 01:07:01;;;;;;;105.10;43.87;;;;;;;0.88;86.17;100594.59;1657126;85;21213;-76
2021/01/02 01:09:27;;;;;;;;;;;;;;;0.88;86.15;100589.50;1639397;86;21247;-76
2021/01/02 01:11:55;;;;;;;114.03;43.23;;;;;;;0.89;86.17;100594.17;1658856;84;20550;-76
2021/01/02 01:14:22;;;;;;;98.85;41.18;;;;;;;0.89;86.17;100595.45;1664143;84;21512;-76
2021/01/02 01:16:54;;;;;;;102.25;42.80;;;;;;;0.87;86.16;100597.09;1658575;85;21649;-76
2021/01/02 01:19:23;;;;;;;89.87;38.42;;;;;;;0.86;86.17;100600.06;1653500;85;21200;-76
2021/01/02 01:21:51;;;;;;;89.10;37.50;;;;;;;0.87;86.17;100595.83;1659951;85;21697;-76
2021/01/02 01:24:46;;;;;;;97.62;40.52;;;;;;;0.89;86.21;100605.63;1637682;86;21654;-76
2021/01/02 01:27:44;;;;;;;93.00;38.28;;;;;;;0.90;86.18;100616.27;1656381;85;21657;-76
2021/01/02 01:30:14;;;;;;;97.50;40.28;;;;;;;0.90;86.21;100613.72;1629705;86;21172;-75
2021/01/02 01:32:44;;;;;;;96.80;40.00;;;;;;;0.90;86.18;100617.13;1633853;85;21657;-75
2021/01/02 01:35:13;;;;;;;91.45;39.33;;;;;;;0.90;86.18;100616.27;1637420;85;21234;-75
2021/01/02 01:37:41;;;;;;;98.35;39.90;;;;;;;0.89;86.18;100624.31;1659534;85;21248;-75
2021/01/02 01:40:09;;;;;;;91.42;38.20;;;;;;;0.87;86.20;100625.95;1659554;85;21213;-75
2021/01/02 01:42:43;;;;;;;93.85;39.30;;;;;;;0.87;86.21;100622.14;1633849;86;179055;-76
2021/01/02 01:45:36;;;;;;;93.95;39.30;;;;;;;0.85;86.21;100627.61;1661553;84;21252;-75
2021/01/02 01:48:09;;;;;;;92.65;40.08;;;;;;;0.85;86.24;100624.20;1607549;87;21226;-75
2021/01/02 01:51:10;;;;;;;104.92;42.90;;;;;;;0.86;86.22;100625.92;1641110;85;21224;-75
2021/01/02 01:53:56;;;;;;;99.97;42.40;;;;;;;0.86;86.24;100620.83;1626110;86;21777;-75
2021/01/02 01:56:49;;;;;;;113.52;42.65;;;;;;;0.85;86.26;100622.52;1634305;86;21270;-75
2021/01/02 01:59:22;;;;;;;101.78;41.88;;;;;;;0.85;86.24;100621.24;1640270;85;21694;-76
2021/01/02 02:01:55;;;;;;;97.53;40.23;;;;;;;0.87;86.23;100623.83;1647687;85;21260;-76
2021/01/02 02:04:29;;;;;;;101.20;42.00;;;;;;;0.86;86.21;100625.92;1634669;86;21572;-76
2021/01/02 02:07:01;;;;;;;104.23;42.95;;;;;;;0.84;86.21;100627.57;1645708;85;21198;-76
2021/01/02 02:09:42;;;;;;;103.27;42.10;;;;;;;0.84;86.20;100628.84;1567887;89;21158;-76
2021/01/02 02:12:22;;;;;;;111.22;44.65;;;;;;;0.82;86.21;100633.03;1648985;85;21136;-76
2021/01/02 02:15:02;;;;;;;88.95;38.63;;;;;;;0.82;86.22;100632.63;1603982;87;21215;-76
2021/01/02 02:17:45;;;;;;;86.10;37.35;;;;;;;0.79;86.17;100632.55;1635792;86;21665;-76
2021/01/02 02:20:16;;;;;;;88.52;35.78;;;;;;;0.75;86.14;100633.30;1623723;85;21111;-76
2021/01/02 02:22:43;;;;;;;86.28;33.98;;;;;;;0.70;86.11;100634.02;1636279;86;21163;-76
2021/01/02 02:25:15;;;;;;;82.95;35.63;;;;;;;0.66;86.10;100638.17;1648669;85;21153;-76
2021/01/02 02:27:43;;;;;;;72.12;30.72;;;;;;;0.63;86.14;100639.37;1615579;87;21182;-76
2021/01/02 02:30:17;;;;;;;91.12;35.90;;;;;;;0.60;86.18;100635.48;1647735;85;21170;-76
2021/01/02 02:32:48;;;;;;;83.20;34.23;;;;;;;0.59;86.20;100643.93;1599586;88;21362;-76
2021/01/02 02:35:17;;;;;;;75.78;32.40;;;;;;;0.58;86.24;100654.52;1615678;87;21184;-76
2021/01/02 02:37:48;;;;;;;72.53;31.10;;;;;;;0.56;86.20;100648.53;1646770;85;21140;-76
2021/01/02 02:40:19;;;;;;;74.50;33.80;;;;;;;0.54;86.21;100653.99;1634610;86;21245;-76
2021/01/02 02:43:01;;;;;;;81.53;31.80;;;;;;;0.54;86.22;100651.86;1649133;85;21139;-76
2021/01/02 02:45:30;;;;;;;81.00;34.65;;;;;;;0.52;86.20;100649.72;1647908;85;21134;-76
2021/01/02 02:47:59;;;;;;;79.80;33.70;;;;;;;0.51;86.25;100652.67;1628372;87;21181;-76
2021/01/02 02:50:27;;;;;;;77.40;33.40;;;;;;;0.50;86.26;100649.69;1650218;85;21116;-76
2021/01/02 02:53:07;;;;;;;86.32;35.65;;;;;;;0.49;86.22;100658.14;1631584;86;21547;-76
2021/01/02 02:55:42;;;;;;;80.67;33.33;;;;;;;0.47;86.24;100658.92;1643643;86;21156;-76
2021/01/02 02:58:10;;;;;;;84.70;34.50;;;;;;;0.46;86.26;100664.83;1592328;86;21164;-75
2021/01/02 03:00:37;;;;;;;76.82;33.15;;;;;;;0.45;86.26;100655.48;1643418;86;21268;-75
2021/01/02 03:03:06;;;;;;;71.10;30.55;;;;;;;0.45;86.26;100657.61;1625097;87;21179;-75
2021/01/02 03:05:33;;;;;;;74.27;29.77;;;;;;;0.46;86.27;100661.02;1643569;86;21470;-75
2021/01/02 03:08:00;;;;;;;74.70;29.98;;;;;;;0.43;86.21;100668.16;1603956;88;21150;-75
2021/01/02 03:10:26;;;;;;;70.22;28.23;;;;;;;0.39;86.17;100668.89;1615611;87;21149;-75
2021/01/02 03:12:53;;;;;;;65.70;28.17;;;;;;;0.36;86.17;100672.62;1631238;87;21126;-75
2021/01/02 03:15:23;;;;;;;72.60;28.75;;;;;;;0.36;86.18;100676.86;1643862;86;21131;-75
2021/01/02 03:17:50;;;;;;;71.82;28.65;;;;;;;0.33;86.18;100673.41;1631176;87;21566;-75
2021/01/02 03:20:17;;;;;;;;;;;;;;;0.31;86.23;100669.97;1624986;85;21162;-75
2021/01/02 03:22:45;;;;;;;73.07;26.15;;;;;;;0.30;86.22;100678.83;1643779;86;20265;-75
2021/01/02 03:25:14;;;;;;;68.47;26.93;;;;;;;0.27;86.18;100678.34;1637459;86;21162;-75
2021/01/02 03:27:41;;;;;;;67.40;28.07;;;;;;;0.25;86.23;100679.11;1643860;86;21142;-76
2021/01/02 03:30:11;;;;;;;65.87;28.20;;;;;;;0.24;86.25;100682.48;1604312;87;21248;-76
2021/01/02 03:32:38;;;;;;;67.80;28.10;;;;;;;0.24;86.29;100683.34;1614836;87;21195;-76
2021/01/02 03:35:05;;;;;;;;;;;;;;;0.26;86.32;100684.24;1632436;87;21116;-76
2021/01/02 03:37:33;;;;;;;70.03;26.95;;;;;;;0.27;86.32;100681.29;1631141;86;20306;-76
2021/01/02 03:40:00;;;;;;;61.95;27.40;;;;;;;0.27;86.31;100681.29;1643682;85;21136;-76
2021/01/02 03:42:25;;;;;;;57.65;25.17;;;;;;;0.25;86.28;100679.11;1625397;87;22316;-76
2021/01/02 03:44:51;;;;;;;58.20;22.53;;;;;;;0.25;86.29;100688.88;1640085;86;21152;-76
2021/01/02 03:47:17;;;;;;;58.57;24.17;;;;;;;0.23;86.21;100688.38;1655525;85;325494;-76
2021/01/02 03:49:43;;;;;;;52.78;23.73;;;;;;;0.19;86.23;100687.44;1646589;86;20946;-76
2021/01/02 03:52:09;;;;;;;55.33;23.87;;;;;;;0.20;86.25;100693.38;1660170;85;21005;-76
2021/01/02 03:54:35;;;;;;;49.20;21.50;;;;;;;0.18;86.27;100688.67;1646651;87;21202;-76
2021/01/02 03:57:02;;;;;;;51.28;22.13;;;;;;;0.16;86.23;100698.80;1648912;87;21446;-76
2021/01/02 03:59:28;;;;;;;50.28;21.73;;;;;;;0.14;86.22;100697.89;1648044;87;21161;-76
2021/01/02 04:01:57;;;;;;;53.23;23.70;;;;;;;0.10;86.26;100699.90;1631598;87;20960;-76
2021/01/02 04:04:24;;;;;;;52.98;24.05;;;;;;;0.11;86.27;100701.63;1648824;87;21180;-76
2021/01/02 04:06:52;;;;;;;;;;;;;;;0.10;86.27;100698.63;1649110;86;21989;-76
2021/01/02 04:09:21;;;;;;;49.23;20.95;;;;;;;0.10;86.31;100699.90;1648817;87;20555;-76
2021/01/02 04:11:49;;;;;;;46.73;19.82;;;;;;;0.10;86.30;100697.36;1643167;86;21188;-76
2021/01/02 04:14:16;;;;;;;42.62;20.00;;;;;;;0.08;86.28;100690.51;1637845;87;21139;-76
2021/01/02 04:16:43;;;;;;;51.83;21.80;;;;;;;0.06;86.28;100694.69;1638622;86;21224;-76
2021/01/02 04:19:09;;;;;;;48.95;22.52;;;;;;;0.03;86.28;100691.66;1638095;86;22013;-76
2021/01/02 04:21:35;;;;;;;;;;;;;;;0.03;86.33;100689.52;1644772;86;22049;-76
2021/01/02 04:24:02;;;;;;;48.02;20.95;;;;;;;0.01;86.30;100693.29;1638254;86;20454;-76
2021/01/02 04:26:28;;;;;;;;;;;;;;;-0.01;86.32;100688.20;1639360;86;21706;-76
2021/01/02 04:28:56;;;;;;;48.23;19.90;;;;;;;-0.01;86.36;100689.88;1653735;86;23557;-76
2021/01/02 04:31:25;;;;;;;50.10;21.73;;;;;;;-0.01;86.40;100684.80;1653120;85;21249;-76
2021/01/02 04:33:50;;;;;;;49.55;21.23;;;;;;;-0.02;86.34;100695.37;1652647;86;21663;-76
2021/01/02 04:36:17;;;;;;;46.70;20.70;;;;;;;-0.03;86.37;100690.24;1642084;85;20989;-76
2021/01/02 04:38:44;;;;;;;52.48;21.50;;;;;;;-0.02;86.38;100690.28;1648467;84;28474;-76
2021/01/02 04:41:14;;;;;;;47.95;20.35;;;;;;;-0.02;86.33;100688.16;1638603;86;21162;-76
2021/01/02 04:43:43;;;;;;;48.83;21.70;;;;;;;-0.02;86.37;100694.09;1636671;86;21955;-76
2021/01/02 04:46:09;;;;;;;50.92;21.62;;;;;;;-0.03;86.34;100686.43;1636654;86;152229;-76
2021/01/02 04:48:36;;;;;;;47.98;20.65;;;;;;;-0.04;86.33;100690.66;1635986;86;21221;-76
2021/01/02 04:51:03;;;;;;;44.95;20.02;;;;;;;-0.04;86.33;100697.41;1660120;86;21644;-76
2021/01/02 04:53:30;;;;;;;48.17;21.48;;;;;;;-0.06;86.34;100694.83;1660327;84;21225;-76
2021/01/02 04:55:59;;;;;;;48.83;20.37;;;;;;;-0.05;86.37;100704.59;1692275;84;21213;-76
2021/01/02 04:58:26;;;;;;;46.02;18.87;;;;;;;-0.07;86.34;100703.27;1675566;84;21508;-76
2021/01/02 05:00:54;;;;;;;;;;;;;;;-0.07;86.34;100713.44;1680653;84;21222;-76
2021/01/02 05:03:20;;;;;;;46.98;20.35;;;;;;;-0.09;86.35;100706.18;1674257;85;21080;-76
2021/01/02 05:05:51;;;;;;;47.27;19.37;;;;;;;-0.10;86.35;100712.48;1673890;85;20983;-76
2021/01/02 05:08:17;;;;;;;39.98;18.23;;;;;;;-0.10;86.36;100713.76;1674920;84;21152;-75
2021/01/02 05:11:03;;;;;;;44.48;18.70;;;;;;;-0.11;86.39;100709.50;1675865;84;21122;-75
2021/01/02 05:13:31;;;;;;;41.70;18.57;;;;;;;-0.14;86.34;100705.19;1677862;84;21174;-75
2021/01/02 05:16:17;;;;;;;42.67;19.50;;;;;;;-0.15;86.34;100714.90;1704870;83;21152;-75
2021/01/02 05:18:58;;;;;;;;;;;;;;;-0.16;86.32;100708.50;1674426;84;21887;-76
2021/01/02 05:21:26;;;;;;;39.10;18.32;;;;;;;-0.18;86.33;100711.41;1676265;84;21249;-76
2021/01/02 05:24:14;;;;;;;43.95;19.70;;;;;;;-0.18;86.38;100721.58;1677423;84;21432;-76
2021/01/02 05:27:00;;;;;;;44.23;19.20;;;;;;;-0.17;86.39;100716.53;1670480;85;21134;-76
2021/01/02 05:29:30;;;;;;;;;;;;;;;-0.16;86.37;100727.56;1675494;84;21122;-76
2021/01/02 05:32:02;;;;;;;39.40;17.10;;;;;;;-0.17;86.39;100722.89;1675752;84;20527;-76
2021/01/02 05:34:31;;;;;;;36.40;18.52;;;;;;;-0.17;86.36;100733.46;1675349;84;21436;-76
2021/01/02 05:37:08;;;;;;;36.40;17.80;;;;;;;-0.19;86.35;100733.42;1675156;84;20992;-76
2021/01/02 05:39:49;;;;;;;46.70;19.32;;;;;;;-0.19;86.36;100731.28;1675714;85;21153;-76
2021/01/02 05:42:12;;;;;;;44.13;19.40;;;;;;;-0.20;86.39;100734.23;1661370;84;21129;-76
2021/01/02 05:44:40;;;;;;;45.57;19.43;;;;;;;-0.19;86.39;100735.09;1679113;84;20948;-76
2021/01/02 05:47:11;;;;;;;45.28;19.60;;;;;;;-0.20;86.38;100732.96;1654384;85;21170;-76
2021/01/02 05:49:40;;;;;;;48.73;20.43;;;;;;;-0.18;86.42;100734.28;1663015;83;21237;-77
2021/01/02 05:52:11;;;;;;;39.25;17.80;;;;;;;-0.18;86.42;100737.68;1674682;84;21193;-76
2021/01/02 05:54:49;;;;;;;41.37;18.92;;;;;;;-0.17;86.39;100741.95;1665429;85;21202;-76
2021/01/02 05:57:30;;;;;;;43.42;18.67;;;;;;;-0.17;86.38;100741.09;1666091;85;21190;-76
2021/01/02 05:59:58;;;;;;;38.53;18.20;;;;;;;-0.17;86.36;100736.00;1666119;86;21213;-76
2021/01/02 06:02:30;;;;;;;41.35;19.32;;;;;;;-0.19;86.34;100737.63;1665666;86;21250;-76
2021/01/02 06:05:07;;;;;;;41.77;20.02;;;;;;;-0.22;86.35;100738.81;1663084;86;21198;-76
2021/01/02 06:07:36;;;;;;;42.62;18.00;;;;;;;-0.22;86.37;100735.00;1666072;85;21226;-75
2021/01/02 06:10:07;;;;;;;42.20;19.37;;;;;;;-0.25;86.37;100734.50;1669144;84;21210;-75
2021/01/02 06:12:39;;;;;;;39.73;17.57;;;;;;;-0.24;86.40;100740.04;1664366;84;22305;-75
2021/01/02 06:15:09;;;;;;;49.50;19.62;;;;;;;-0.22;86.40;100735.87;1665857;86;21162;-76
2021/01/02 06:17:38;;;;;;;57.78;20.02;;;;;;;-0.21;86.40;100743.08;1665685;85;21712;-76
2021/01/02 06:20:11;;;;;;;42.05;17.95;;;;;;;-0.22;86.39;100742.63;1635025;85;21227;-76
2021/01/02 06:22:41;;;;;;;42.27;18.25;;;;;;;-0.24;86.37;100747.66;1663580;86;21209;-76
2021/01/02 06:25:13;;;;;;;45.38;17.67;;;;;;;-0.23;86.42;100745.58;1666005;85;21213;-76
2021/01/02 06:27:44;;;;;;;39.65;19.27;;;;;;;-0.23;86.39;100758.69;1666255;85;21213;-76
2021/01/02 06:30:16;;;;;;;52.62;19.30;;;;;;;-0.25;86.42;100766.27;1624839;86;21679;-76
2021/01/02 06:32:48;;;;;;;45.20;19.07;;;;;;;-0.25;86.40;100764.13;1665956;85;21214;-76
2021/01/02 06:35:19;;;;;;;40.50;18.48;;;;;;;-0.26;86.41;100764.54;1663727;86;21178;-76
2021/01/02 06:37:59;;;;;;;37.15;17.60;;;;;;;-0.25;86.43;100763.73;1666352;84;21509;-76
2021/01/02 06:40:31;;;;;;;36.40;16.97;;;;;;;-0.26;86.42;100770.89;1666188;85;21258;-76
2021/01/02 06:43:01;;;;;;;43.68;18.65;;;;;;;-0.27;86.41;100770.84;1662052;86;21618;-76
2021/01/02 06:45:41;;;;;;;36.30;15.95;;;;;;;-0.29;86.38;100772.07;1662148;86;21258;-76
2021/01/02 06:48:25;;;;;;;44.50;17.87;;;;;;;-0.31;86.34;100776.66;1665343;85;21201;-76
2021/01/02 06:50:58;;;;;;;42.65;16.10;;;;;;;-0.35;86.35;100774.02;1666884;84;21408;-76
2021/01/02 06:53:26;;;;;;;47.95;16.45;;;;;;;-0.39;86.36;100771.33;1668403;85;21195;-76
2021/01/02 06:56:14;;;;;;;40.23;16.82;;;;;;;-0.42;86.36;100777.59;1677985;85;21192;-76
2021/01/02 06:58:49;;;;;;;45.15;17.00;;;;;;;-0.42;86.40;100783.94;1661166;83;21538;-76
2021/01/02 07:01:23;;;;;;;37.25;17.37;;;;;;;-0.46;86.41;100773.23;1672131;85;21204;-75
2021/01/02 07:03:50;;;;;;;45.05;17.60;;;;;;;-0.46;86.47;100775.77;1678989;84;21508;-75
2021/01/02 07:06:31;;;;;;;44.30;17.32;;;;;;;-0.45;86.47;100777.50;1680090;84;21570;-75
2021/01/02 07:09:19;;;;;;;41.55;16.35;;;;;;;-0.44;86.48;100785.57;1679706;84;21669;-75
2021/01/02 07:11:48;;;;;;;41.00;17.10;;;;;;;-0.44;86.47;100785.57;1671625;83;21196;-75
2021/01/02 07:14:21;;;;;;;107.47;51.85;;;;;;;-0.44;86.44;100795.73;1659602;85;21172;-75
2021/01/02 07:17:11;;;;;;;82.20;35.38;;;;;;;-0.45;86.51;100799.95;1677627;85;21351;-76
2021/01/02 07:19:46;;;;;;;67.62;29.15;;;;;;;-0.45;86.49;100809.25;1654463;84;21121;-76
2021/01/02 07:22:20;;;;;;;56.88;24.02;;;;;;;-0.44;86.48;100813.52;1663497;85;21582;-76
2021/01/02 07:24:53;;;;;;;111.65;52.95;;;;;;;-0.46;86.47;100816.41;1679563;85;21193;-76
2021/01/02 07:27:30;;;;;;;77.42;39.88;;;;;;;-0.46;86.49;100815.14;1673260;85;21153;-76
2021/01/02 07:30:14;;;;;;;50.52;23.00;;;;;;;-0.45;86.51;100816.87;1669179;85;21248;-76
2021/01/02 07:32:42;;;;;;;49.83;23.42;;;;;;;-0.45;86.48;100823.22;1674679;85;21248;-75
2021/01/02 07:35:13;;;;;;;53.55;27.00;;;;;;;-0.46;86.49;100830.37;1672116;85;21260;-75
2021/01/02 07:37:45;;;;;;;61.70;26.85;;;;;;;-0.47;86.51;100830.78;1679337;85;21219;-75
2021/01/02 07:40:15;;;;;;;54.98;24.50;;;;;;;-0.44;86.53;100841.45;1678518;84;21672;-75
2021/01/02 07:42:53;;;;;;;42.45;17.27;;;;;;;-0.46;86.51;100836.33;1663910;85;22522;-75
2021/01/02 07:45:25;;;;;;;49.23;22.25;;;;;;;-0.45;86.51;100839.73;1678182;85;21247;-75
2021/01/02 07:47:55;;;;;;;36.53;16.85;;;;;;;-0.48;86.47;100847.25;1678393;85;21239;-75
2021/01/02 07:50:23;;;;;;;49.70;19.62;;;;;;;-0.50;86.48;100849.73;1676199;83;21277;-76
2021/01/02 07:52:57;;;;;;;47.83;18.98;;;;;;;-0.49;86.53;100850.20;1659980;85;21224;-76
2021/01/02 07:55:29;;;;;;;40.50;18.27;;;;;;;-0.46;86.58;100857.05;1675449;85;21358;-76
2021/01/02 07:57:55;;;;;;;43.45;17.12;;;;;;;-0.45;86.61;100849.48;1660934;85;22555;-76
2021/01/02 08:00:23;;;;;;;47.70;19.37;;;;;;;-0.45;86.55;100860.05;1679033;83;27757;-76
2021/01/02 08:02:50;;;;;;;38.20;20.50;;;;;;;-0.46;86.54;100874.42;1680612;84;21486;-76
2021/01/02 08:05:20;;;;;;;49.27;19.92;;;;;;;-0.46;86.55;100873.16;1678546;84;21208;-76
2021/01/02 08:07:56;;;;;;;34.03;17.92;;;;;;;-0.44;86.57;100876.61;1662970;85;21359;-76
2021/01/02 08:10:23;;;;;;;38.33;16.73;;;;;;;-0.45;86.52;100877.83;1684014;83;21145;-76
2021/01/02 08:12:52;;;;;;;39.38;16.05;;;;;;;-0.48;86.47;100871.37;1677291;83;21132;-79
2021/01/02 08:15:34;;;;;;;36.48;16.27;;;;;;;-0.51;86.46;100884.84;1659389;85;21159;-75
2021/01/02 08:18:07;;;;;;;39.60;16.23;;;;;;;-0.54;86.45;100886.05;1681894;85;21129;-75
2021/01/02 08:20:34;;;;;;;35.50;14.40;;;;;;;-0.57;86.46;100888.89;1678929;83;21184;-75
2021/01/02 08:23:07;;;;;;;;;;;;;;;-0.57;86.48;100900.31;1684436;85;21140;-75
2021/01/02 08:25:34;;;;;;;33.70;15.20;;;;;;;-0.59;86.48;100895.59;1681786;84;20270;-75
2021/01/02 08:28:01;;;;;;;31.65;17.00;;;;;;;-0.63;86.47;100903.91;1680026;84;21131;-75
2021/01/02 08:30:27;;;;;;;34.98;17.45;;;;;;;-0.63;86.57;100909.86;1682045;85;21166;-75
2021/01/02 08:32:55;;;;;;;39.05;16.97;;;;;;;-0.61;86.64;100908.64;1663966;85;21346;-75
2021/01/02 08:35:38;;;;;;;40.15;20.05;;;;;;;-0.60;86.65;100902.75;1681150;84;21173;-75
2021/01/02 08:38:10;;;;;;;49.70;29.45;;;;;;;-0.57;86.67;100906.26;1677319;83;21127;-77
2021/01/02 08:40:38;;;;;;;43.98;22.77;;;;;;;-0.53;86.66;100909.77;1671160;85;21141;-76
2021/01/02 08:43:04;;;;;;;40.70;21.33;;;;;;;-0.52;86.59;100911.48;1679088;85;21127;-76
2021/01/02 08:45:33;;;;;;;55.95;30.45;;;;;;;-0.51;86.61;100912.78;1663167;85;21586;-76
2021/01/02 08:48:16;;;;;;;47.40;21.50;;;;;;;-0.49;86.65;100917.50;1681211;85;21657;-76
2021/01/02 08:50:40;;;;;;;49.90;21.57;;;;;;;-0.45;86.67;100917.20;1678704;83;21260;-75
2021/01/02 08:53:07;;;;;;;44.75;21.57;;;;;;;-0.40;86.66;100916.54;1679617;84;21646;-75
2021/01/02 08:55:33;;;;;;;41.83;19.45;;;;;;;-0.40;86.64;100911.45;1651933;85;21237;-75
2021/01/02 08:58:00;;;;;;;50.63;22.17;;;;;;;-0.39;86.60;100911.92;1651941;85;21213;-75
2021/01/02 09:00:31;;;;;;;41.20;19.37;;;;;;;-0.36;86.62;100909.88;1673983;84;21213;-75
2021/01/02 09:03:09;;;;;;;41.00;19.23;;;;;;;-0.35;86.63;100909.94;1648918;84;236952;-75
2021/01/02 09:05:38;;;;;;;43.98;19.90;;;;;;;-0.31;86.66;100915.98;1645021;86;21198;-75
2021/01/02 09:08:11;;;;;;;51.53;24.25;;;;;;;-0.28;86.64;100916.48;1641195;85;21213;-75
2021/01/02 09:10:43;;;;;;;49.63;24.82;;;;;;;-0.26;86.68;100913.18;1623671;85;21333;-75
2021/01/02 09:13:20;;;;;;;50.30;24.65;;;;;;;-0.22;86.66;100912.88;1643372;84;21152;-75
2021/01/02 09:16:00;;;;;;;51.53;24.90;;;;;;;-0.20;86.59;100915.92;1646731;87;21132;-75
2021/01/02 09:18:31;;;;;;;49.58;23.30;;;;;;;-0.20;86.61;100918.46;1645649;85;21109;-75
2021/01/02 09:21:15;;;;;;;55.63;23.18;;;;;;;-0.16;86.61;100920.28;1637569;85;21125;-75
2021/01/02 09:23:43;;;;;;;45.00;20.97;;;;;;;-0.14;86.60;100925.42;1646760;85;21171;-75
2021/01/02 09:26:31;;;;;;;49.60;22.87;;;;;;;-0.11;86.59;100927.66;1647065;85;21145;-75
2021/01/02 09:29:00;;;;;;;43.00;20.88;;;;;;;-0.12;86.52;100933.55;1642749;87;21145;-75
2021/01/02 09:31:27;;;;;;;44.38;19.52;;;;;;;-0.13;86.54;100932.23;1648993;85;21540;-75
2021/01/02 09:33:53;;;;;;;;;;;;;;;-0.11;86.59;100929.33;1663106;84;21089;-74
2021/01/02 09:36:21;;;;;;;43.35;20.43;;;;;;;-0.08;86.59;100931.97;1619698;87;20811;-75
2021/01/02 09:38:48;;;;;;;43.70;20.43;;;;;;;-0.10;86.52;100930.66;1639992;85;21156;-75
2021/01/02 09:41:19;;;;;;;48.75;21.90;;;;;;;-0.09;86.56;100931.52;1658270;85;21653;-75
2021/01/02 09:43:45;;;;;;;43.98;19.45;;;;;;;-0.08;86.59;100931.56;1646628;85;21238;-75
2021/01/02 09:46:16;;;;;;;42.20;19.92;;;;;;;-0.05;86.57;100917.69;1652443;85;21248;-75
2021/01/02 09:48:41;;;;;;;41.28;17.98;;;;;;;-0.04;86.52;100921.95;1649929;85;21168;-75
2021/01/02 09:51:07;;;;;;;45.45;20.45;;;;;;;-0.03;86.51;100926.62;1637065;85;21137;-75
2021/01/02 09:53:33;;;;;;;44.70;20.52;;;;;;;-0.04;86.59;100925.77;1652290;85;20919;-75
2021/01/02 09:55:58;;;;;;;49.40;20.43;;;;;;;-0.02;86.61;100924.13;1674035;84;20954;-75
2021/01/02 09:58:24;;;;;;;41.17;18.60;;;;;;;0.00;86.60;100919.09;1660822;84;21003;-75
2021/01/02 10:00:50;;;;;;;50.57;19.23;;;;;;;0.00;86.57;100925.45;1647799;84;21189;-75
2021/01/02 10:03:16;;;;;;;42.78;20.20;;;;;;;0.00;86.60;100925.02;1637220;84;21789;-75
2021/01/02 10:05:42;;;;;;;45.33;19.67;;;;;;;0.00;86.60;100927.55;1657574;84;21008;-76
2021/01/02 10:08:08;;;;;;;38.02;18.05;;;;;;;-0.01;86.60;100927.13;1623892;86;21221;-75
2021/01/02 10:10:34;;;;;;;48.98;20.02;;;;;;;-0.01;86.62;100924.59;1659437;84;21662;-75
2021/01/02 10:13:00;;;;;;;47.05;21.55;;;;;;;-0.02;86.59;100925.41;1661411;84;21192;-75
2021/01/02 10:15:26;;;;;;;50.67;21.95;;;;;;;-0.03;86.62;100929.17;1656279;84;20962;-75
2021/01/02 10:17:53;;;;;;;53.10;21.75;;;;;;;0.00;86.71;100930.09;1661234;84;26742;-75
2021/01/02 10:20:19;;;;;;;46.18;21.87;;;;;;;0.04;86.75;100933.59;1653468;84;21230;-75
2021/01/02 10:22:45;;;;;;;46.77;20.25;;;;;;;0.06;86.70;100932.37;1651201;86;21696;-75
2021/01/02 10:25:13;;;;;;;52.93;21.13;;;;;;;0.06;86.66;100934.52;1647975;84;21219;-75
2021/01/02 10:27:39;;;;;;;53.35;23.32;;;;;;;0.08;86.69;100937.10;1663145;84;21211;-75
2021/01/02 10:30:09;;;;;;;52.35;23.62;;;;;;;0.09;86.68;100936.29;1668904;84;21751;-75
2021/01/02 10:32:35;;;;;;;45.40;21.37;;;;;;;0.09;86.66;100940.97;1679999;84;21115;-75
2021/01/02 10:35:01;;;;;;;49.00;22.27;;;;;;;0.11;86.68;100935.52;1664200;84;21146;-75
2021/01/02 10:37:29;;;;;;;48.25;19.95;;;;;;;0.12;86.65;100937.66;1672205;84;21302;-75
2021/01/02 10:39:57;;;;;;;44.27;20.52;;;;;;;0.11;86.57;100942.28;1669201;84;21444;-75
2021/01/02 10:42:28;;;;;;;47.75;21.60;;;;;;;0.07;86.57;100933.70;1668393;84;32581;-75
2021/01/02 10:44:54;;;;;;;46.68;21.70;;;;;;;0.13;86.70;100937.70;1646663;84;21145;-76
2021/01/02 10:47:24;;;;;;;48.25;19.05;;;;;;;0.15;86.70;100927.17;1671436;84;21542;-76
2021/01/02 10:49:51;;;;;;;45.58;20.88;;;;;;;0.18;86.67;100932.35;1662193;84;21186;-76
2021/01/02 10:52:20;;;;;;;46.42;19.32;;;;;;;0.20;86.65;100929.45;1667894;84;21143;-76
2021/01/02 10:54:47;;;;;;;47.38;22.17;;;;;;;0.20;86.62;100923.50;1672612;84;21143;-76
2021/01/02 10:57:16;;;;;;;48.58;20.60;;;;;;;0.22;86.64;100911.70;1665576;84;21877;-76
2021/01/02 10:59:48;;;;;;;52.58;22.73;;;;;;;0.23;86.67;100913.02;1661277;84;21155;-76
2021/01/02 11:02:15;;;;;;;58.78;22.25;;;;;;;0.26;86.67;100913.11;1653874;84;21147;-75
2021/01/02 11:04:41;;;;;;;51.30;21.02;;;;;;;0.29;86.66;100913.20;1661608;84;21147;-75
2021/01/02 11:07:09;;;;;;;50.10;20.43;;;;;;;0.31;86.65;100902.67;1669601;84;21519;-75
2021/01/02 11:09:36;;;;;;;51.37;20.97;;;;;;;0.32;86.61;100903.53;1654988;84;21134;-75
2021/01/02 11:12:01;;;;;;;;;;;;;;;0.33;86.65;100904.85;1670838;84;21570;-75
2021/01/02 11:14:27;;;;;;;49.42;20.00;;;;;;;0.32;86.57;100900.58;1666198;84;21093;-75
2021/01/02 11:16:54;;;;;;;51.80;21.57;;;;;;;0.32;86.61;100895.49;1664926;84;21055;-76
2021/01/02 11:19:25;;;;;;;52.38;23.27;;;;;;;0.36;86.68;100893.91;1657622;84;21246;-76
2021/01/02 11:21:53;;;;;;;65.22;27.15;;;;;;;0.38;86.69;100891.00;1678001;84;21227;-75
2021/01/02 11:24:24;;;;;;;66.77;29.40;;;;;;;0.39;86.67;100891.45;1670490;84;21219;-75
2021/01/02 11:26:54;;;;;;;77.27;31.05;;;;;;;0.43;86.68;100892.41;1663497;84;21201;-75
2021/01/02 11:29:23;;;;;;;61.88;26.33;;;;;;;0.42;86.60;100891.55;1657295;84;21646;-75
2021/01/02 11:31:51;;;;;;;57.90;25.70;;;;;;;0.43;86.59;100892.41;1667934;84;21580;-75
2021/01/02 11:34:17;;;;;;;60.00;25.88;;;;;;;0.42;86.58;100888.14;1668158;84;21214;-75
2021/01/02 11:36:54;;;;;;;67.10;28.10;;;;;;;0.44;86.68;100881.00;1649161;84;21205;-75